createdAt,value
2019-03-06T00:02:21.342Z,100656.09
2019-03-06T00:04:51.066Z,100662.05
2019-03-06T00:07:20.811Z,100656.97
2019-03-06T00:09:50.449Z,100655.61
2019-03-06T00:12:20.110Z,100655.41
2019-03-06T00:14:49.746Z,100650.26
2019-03-06T00:17:19.544Z,100655.06
2019-03-06T00:19:49.172Z,100658.58
2019-03-06T00:22:18.886Z,100659.14
2019-03-06T00:24:48.925Z,100664.63
2019-03-06T00:27:18.551Z,100670.78
2019-03-06T00:29:48.222Z,100674.94
2019-03-06T00:32:17.852Z,100669.31
2019-03-06T00:34:47.504Z,100678.50
2019-03-06T00:37:17.663Z,100674.94
2019-03-06T00:39:49.035Z,100666.61
2019-03-06T00:42:18.742Z,100671.73
2019-03-06T00:44:48.446Z,100671.89
2019-03-06T00:47:18.077Z,100682.88
2019-03-06T00:49:47.724Z,100696.82
2019-03-06T00:52:17.347Z,100693.31
2019-03-06T00:54:48.114Z,100693.45
2019-03-06T00:57:17.780Z,100698.34
2019-03-06T00:59:47.886Z,100698.14
2019-03-06T01:02:17.539Z,100695.80
2019-03-06T01:04:47.237Z,100692.53
2019-03-06T01:07:16.922Z,100693.91
2019-03-06T01:09:46.572Z,100694.31
2019-03-06T01:12:16.204Z,100695.42
2019-03-06T01:14:45.930Z,100690.25
2019-03-06T01:17:15.561Z,100690.22
2019-03-06T01:19:45.205Z,100687.39
2019-03-06T01:22:14.861Z,100685.39
2019-03-06T01:24:44.532Z,100687.83
2019-03-06T01:27:14.183Z,100690.94
2019-03-06T01:29:43.836Z,100693.94
2019-03-06T01:32:13.488Z,100692.80
2019-03-06T01:34:59.955Z,100685.89
2019-03-06T01:37:31.329Z,100693.48
2019-03-06T01:40:20.711Z,100683.11
2019-03-06T01:42:54.542Z,100687.00
2019-03-06T01:45:24.355Z,100686.97
2019-03-06T01:47:54.007Z,100689.33
2019-03-06T01:50:23.655Z,100691.70
2019-03-06T01:52:53.286Z,100689.88
2019-03-06T01:55:22.946Z,100683.42
2019-03-06T01:57:52.573Z,100679.14
2019-03-06T02:00:22.668Z,100677.88
2019-03-06T02:02:52.339Z,100679.50
2019-03-06T02:05:21.972Z,100682.06
2019-03-06T02:07:51.617Z,100682.94
2019-03-06T02:10:21.416Z,100682.80
2019-03-06T02:12:51.078Z,100675.67
2019-03-06T02:15:20.879Z,100678.11
2019-03-06T02:17:50.532Z,100681.37
2019-03-06T02:20:20.181Z,100671.75
2019-03-06T02:22:49.912Z,100681.00
2019-03-06T02:25:19.612Z,100684.77
2019-03-06T02:27:49.253Z,100673.55
2019-03-06T02:30:21.825Z,100672.55
2019-03-06T02:32:51.466Z,100665.56
2019-03-06T02:35:21.370Z,100665.83
2019-03-06T02:37:51.010Z,100665.56
2019-03-06T02:40:20.647Z,100661.59
2019-03-06T02:43:02.467Z,100656.85
2019-03-06T02:45:32.088Z,100655.83
2019-03-06T02:48:01.736Z,100657.50
2019-03-06T02:50:31.376Z,100647.52
2019-03-06T02:53:02.952Z,100646.99
2019-03-06T02:55:32.596Z,100660.61
2019-03-06T02:58:06.873Z,100654.43
2019-03-06T03:00:38.529Z,100652.23
2019-03-06T03:03:25.942Z,100652.28
2019-03-06T03:06:05.900Z,100653.22
2019-03-06T03:08:35.553Z,100653.86
2019-03-06T03:11:05.406Z,100645.86
2019-03-06T03:13:35.178Z,100655.73
2019-03-06T03:16:05.058Z,100644.36
2019-03-06T03:18:34.952Z,100648.53
2019-03-06T03:21:04.822Z,100652.16
2019-03-06T03:23:34.661Z,100647.74
2019-03-06T03:26:04.458Z,100646.27
2019-03-06T03:28:34.121Z,100637.90
2019-03-06T03:31:03.796Z,100636.69
2019-03-06T03:33:33.455Z,100637.14
2019-03-06T03:36:03.123Z,100639.16
2019-03-06T03:38:32.759Z,100636.61
2019-03-06T03:41:02.621Z,100625.62
2019-03-06T03:43:47.385Z,100616.02
2019-03-06T03:46:17.028Z,100615.96
2019-03-06T03:48:46.696Z,100614.77
2019-03-06T03:51:16.330Z,100609.80
2019-03-06T03:53:46.832Z,100611.66
2019-03-06T03:56:16.529Z,100617.78
2019-03-06T03:58:46.158Z,100625.08
2019-03-06T04:01:34.329Z,100616.04
2019-03-06T04:04:04.154Z,100627.49
2019-03-06T04:06:33.794Z,100622.62
2019-03-06T04:09:04.490Z,100627.36
2019-03-06T04:11:34.123Z,100620.13
2019-03-06T04:14:03.767Z,100630.84
2019-03-06T04:16:33.592Z,100631.64
2019-03-06T04:19:03.238Z,100636.02
2019-03-06T04:21:32.876Z,100633.48
2019-03-06T04:24:02.524Z,100637.81
2019-03-06T04:26:32.160Z,100642.50
2019-03-06T04:29:01.896Z,100645.86
2019-03-06T04:31:31.830Z,100630.39
2019-03-06T04:34:01.474Z,100625.73
2019-03-06T04:36:31.114Z,100620.09
2019-03-06T04:39:00.789Z,100621.19
2019-03-06T04:41:30.414Z,100620.59
2019-03-06T04:44:00.079Z,100622.93
2019-03-06T04:46:29.704Z,100614.97
2019-03-06T04:48:59.351Z,100601.72
2019-03-06T04:51:28.985Z,100605.43
2019-03-06T04:53:58.642Z,100598.06
2019-03-06T04:56:28.287Z,100600.64
2019-03-06T04:58:57.949Z,100603.63
2019-03-06T05:01:27.588Z,100601.98
2019-03-06T05:03:57.236Z,100602.13
2019-03-06T05:06:26.900Z,100598.76
2019-03-06T05:08:56.522Z,100599.02
2019-03-06T05:11:26.173Z,100603.45
2019-03-06T05:13:55.828Z,100596.94
2019-03-06T05:16:27.480Z,100594.59
2019-03-06T05:18:58.190Z,100594.45
2019-03-06T05:21:27.824Z,100594.05
2019-03-06T05:23:57.488Z,100591.27
2019-03-06T05:26:27.173Z,100596.34
2019-03-06T05:28:57.053Z,100597.48
2019-03-06T05:31:26.705Z,100593.09
2019-03-06T05:33:56.365Z,100594.08
2019-03-06T05:36:29.070Z,100592.69
2019-03-06T05:39:07.043Z,100582.61
2019-03-06T05:41:36.692Z,100582.01
2019-03-06T05:44:06.511Z,100579.10
2019-03-06T05:46:36.212Z,100580.41
2019-03-06T05:49:05.952Z,100576.47
2019-03-06T05:51:35.587Z,100576.53
2019-03-06T05:54:05.251Z,100570.16
2019-03-06T05:56:34.904Z,100571.88
2019-03-06T05:59:04.542Z,100570.19
2019-03-06T06:01:34.474Z,100568.84
2019-03-06T06:04:04.110Z,100564.61
2019-03-06T06:06:33.837Z,100559.95
2019-03-06T06:09:04.508Z,100556.02
2019-03-06T06:11:35.465Z,100553.28
2019-03-06T06:14:05.099Z,100554.97
2019-03-06T06:16:34.741Z,100552.95
2019-03-06T06:19:04.387Z,100550.05
2019-03-06T06:21:50.787Z,100549.80
2019-03-06T06:24:20.417Z,100559.05
2019-03-06T06:26:50.079Z,100548.92
2019-03-06T06:29:19.776Z,100549.45
2019-03-06T06:31:49.522Z,100543.49
2019-03-06T06:34:19.236Z,100542.05
2019-03-06T06:36:48.961Z,100534.60
2019-03-06T06:39:18.603Z,100534.89
2019-03-06T06:41:48.269Z,100534.55
2019-03-06T06:44:17.919Z,100536.19
2019-03-06T06:46:47.585Z,100534.14
2019-03-06T06:49:17.222Z,100526.35
2019-03-06T06:51:56.078Z,100516.33
2019-03-06T06:54:45.371Z,100527.19
2019-03-06T06:57:50.151Z,100521.05
2019-03-06T07:00:33.348Z,100519.71
2019-03-06T07:03:38.100Z,100517.42
2019-03-06T07:06:15.572Z,100509.30
2019-03-06T07:08:46.852Z,100508.55
2019-03-06T07:11:18.157Z,100510.59
2019-03-06T07:13:58.178Z,100505.55
2019-03-06T07:16:32.132Z,100498.89
2019-03-06T07:19:12.410Z,100504.20
2019-03-06T07:21:59.775Z,100496.30
2019-03-06T07:24:47.263Z,100498.66
2019-03-06T07:27:33.537Z,100495.41
2019-03-06T07:30:21.654Z,100499.84
2019-03-06T07:32:55.870Z,100491.29
2019-03-06T07:36:08.266Z,100488.91
2019-03-06T07:38:37.917Z,100486.25
2019-03-06T07:41:21.191Z,100486.84
2019-03-06T07:44:01.654Z,100487.85
2019-03-06T07:46:49.340Z,100495.13
2019-03-06T07:49:23.280Z,100498.22
2019-03-06T07:52:00.337Z,100484.66
2019-03-06T07:54:48.123Z,100481.80
2019-03-06T07:57:19.428Z,100478.09
2019-03-06T07:59:49.124Z,100476.96
2019-03-06T08:02:24.987Z,100470.95
2019-03-06T08:04:55.463Z,100466.22
2019-03-06T08:07:25.200Z,100468.13
2019-03-06T08:09:54.829Z,100468.95
2019-03-06T08:12:26.290Z,100464.78
2019-03-06T08:15:12.621Z,100458.97
2019-03-06T08:17:55.990Z,100459.11
2019-03-06T08:20:30.125Z,100463.19
2019-03-06T08:23:01.427Z,100461.52
2019-03-06T08:25:38.879Z,100468.40
2019-03-06T08:28:08.533Z,100463.30
2019-03-06T08:30:39.806Z,100457.20
2019-03-06T08:33:17.984Z,100460.28
2019-03-06T08:35:41.544Z,100461.02
2019-03-06T08:38:17.315Z,100461.69
2019-03-06T08:40:46.952Z,100451.73
2019-03-06T08:43:17.061Z,100446.96
2019-03-06T08:45:48.680Z,100440.61
2019-03-06T08:48:20.045Z,100436.57
2019-03-06T08:50:51.303Z,100436.57
2019-03-06T08:53:25.418Z,100437.63
2019-03-06T08:55:59.363Z,100435.11
2019-03-06T08:58:39.377Z,100441.39
2019-03-06T09:01:35.793Z,100435.91
2019-03-06T09:04:08.246Z,100434.49
2019-03-06T09:06:42.543Z,100438.03
2019-03-06T09:09:24.800Z,100427.86
2019-03-06T09:12:12.648Z,100428.73
2019-03-06T09:14:55.632Z,100421.88
2019-03-06T09:17:27.370Z,100425.27
2019-03-06T09:19:58.650Z,100420.28
2019-03-06T09:22:29.930Z,100418.52
2019-03-06T09:25:04.026Z,100421.74
2019-03-06T09:27:41.577Z,100403.71
2019-03-06T09:30:30.912Z,100397.56
2019-03-06T09:33:11.015Z,100394.94
2019-03-06T09:35:45.215Z,100393.13
2019-03-06T09:38:16.562Z,100386.21
2019-03-06T09:40:53.507Z,100373.62
2019-03-06T09:43:27.465Z,100368.50
2019-03-06T09:46:15.555Z,100366.57
2019-03-06T09:48:49.955Z,100356.08
2019-03-06T09:51:37.809Z,100355.39
2019-03-06T09:54:24.187Z,100345.77
2019-03-06T09:56:55.768Z,100335.00
2019-03-06T09:59:43.361Z,100331.61
2019-03-06T10:02:18.071Z,100324.09
2019-03-06T10:05:01.533Z,100320.23
2019-03-06T10:07:49.071Z,100310.00
2019-03-06T10:10:20.622Z,100304.73
2019-03-06T10:13:03.888Z,100294.58
2019-03-06T10:15:46.951Z,100288.61
2019-03-06T10:18:24.175Z,100291.63
2019-03-06T10:20:53.838Z,100283.00
2019-03-06T10:23:23.459Z,100301.25
2019-03-06T10:25:53.110Z,100293.94
2019-03-06T10:28:27.856Z,100296.31
2019-03-06T10:31:02.197Z,100297.00
2019-03-06T10:33:25.416Z,100288.70
2019-03-06T10:35:55.093Z,100295.45
2019-03-06T10:38:24.797Z,100292.55
2019-03-06T10:40:54.535Z,100288.14
2019-03-06T10:43:24.184Z,100286.80
2019-03-06T10:46:03.110Z,100287.27
2019-03-06T10:48:32.774Z,100278.39
2019-03-06T10:51:02.421Z,100272.15
2019-03-06T10:53:40.903Z,100264.23
2019-03-06T10:56:03.421Z,100268.39
2019-03-06T10:58:33.146Z,100257.02
2019-03-06T11:01:03.215Z,100251.71
2019-03-06T11:03:40.495Z,100251.28
2019-03-06T11:06:11.612Z,100243.86
2019-03-06T11:08:41.376Z,100243.19
2019-03-06T11:11:11.194Z,100247.66
2019-03-06T11:13:41.025Z,100239.39
2019-03-06T11:16:11.576Z,100225.11
2019-03-06T11:18:41.403Z,100214.31
2019-03-06T11:21:11.590Z,100224.52
2019-03-06T11:23:41.442Z,100206.89
2019-03-06T11:26:11.287Z,100213.64
2019-03-06T11:28:41.097Z,100215.08
2019-03-06T11:31:11.793Z,100214.20
2019-03-06T11:33:41.874Z,100198.06
2019-03-06T11:36:11.825Z,100185.09
2019-03-06T11:38:41.453Z,100178.77
2019-03-06T11:41:11.168Z,100169.19
2019-03-06T11:43:41.112Z,100173.61
2019-03-06T11:46:11.709Z,100169.82
2019-03-06T11:48:41.440Z,100172.61
2019-03-06T11:51:11.286Z,100169.14
2019-03-06T11:53:41.016Z,100150.91
2019-03-06T11:56:14.315Z,100148.84
2019-03-06T11:58:44.692Z,100150.41
2019-03-06T12:01:17.929Z,100139.77
2019-03-06T12:03:48.472Z,100112.02
2019-03-06T12:06:18.364Z,100116.67
2019-03-06T12:08:48.356Z,100109.27
2019-03-06T12:11:18.072Z,100110.42
2019-03-06T12:13:48.091Z,100102.22
2019-03-06T12:16:19.462Z,100108.23
2019-03-06T12:18:49.340Z,100104.58
2019-03-06T12:21:19.308Z,100098.25
2019-03-06T12:23:49.137Z,100106.42
2019-03-06T12:26:18.851Z,100075.50
2019-03-06T12:28:48.666Z,100076.19
2019-03-06T12:31:18.378Z,100061.69
2019-03-06T12:33:48.397Z,100055.03
2019-03-06T12:36:19.771Z,100060.30
2019-03-06T12:38:49.481Z,100052.23
2019-03-06T12:41:19.304Z,100048.33
2019-03-06T12:43:56.184Z,100044.77
2019-03-06T12:46:25.846Z,100053.91
2019-03-06T12:48:59.394Z,100048.33
2019-03-06T12:51:29.531Z,100048.28
2019-03-06T12:53:59.519Z,100043.60
2019-03-06T12:56:29.894Z,100032.20
2019-03-06T12:58:59.653Z,100034.07
2019-03-06T13:01:29.360Z,100034.91
2019-03-06T13:03:59.055Z,100030.98
2019-03-06T13:06:28.686Z,100024.32
2019-03-06T13:08:59.024Z,100013.73
2019-03-06T13:11:28.689Z,100005.91
2019-03-06T13:14:02.497Z,99995.79
2019-03-06T13:16:32.146Z,99978.03
2019-03-06T13:19:02.215Z,99958.83
2019-03-06T13:21:33.951Z,99938.42
2019-03-06T13:24:03.709Z,99928.03
2019-03-06T13:26:33.363Z,99917.64
2019-03-06T13:29:03.928Z,99896.43
2019-03-06T13:31:34.014Z,99889.53
2019-03-06T13:34:05.359Z,99881.02
2019-03-06T13:36:35.070Z,99870.85
2019-03-06T13:39:06.851Z,99868.52
2019-03-06T13:41:36.628Z,99867.30
2019-03-06T13:44:06.429Z,99858.92
2019-03-06T13:46:36.327Z,99851.16
2019-03-06T13:49:06.232Z,99835.38
2019-03-06T13:51:35.949Z,99828.18
2019-03-06T13:54:05.856Z,99818.72
2019-03-06T13:56:35.613Z,99825.73
2019-03-06T13:59:05.882Z,99817.02
2019-03-06T14:01:35.752Z,99814.58
2019-03-06T14:04:05.643Z,99812.73
2019-03-06T14:06:35.545Z,99786.44
2019-03-06T14:09:07.775Z,99788.89
2019-03-06T14:11:37.684Z,99783.77
2019-03-06T14:14:07.371Z,99800.47
2019-03-06T14:16:37.041Z,99791.27
2019-03-06T14:19:06.802Z,99794.22
2019-03-06T14:21:36.583Z,99795.69
2019-03-06T14:24:06.391Z,99779.33
2019-03-06T14:26:36.359Z,99777.98
2019-03-06T14:29:06.004Z,99772.08
2019-03-06T14:31:35.730Z,99762.59
2019-03-06T14:34:05.504Z,99759.64
2019-03-06T14:36:35.348Z,99753.83
2019-03-06T14:39:08.092Z,99757.52
2019-03-06T14:41:37.839Z,99762.83
2019-03-06T14:44:07.899Z,99756.17
2019-03-06T14:46:37.611Z,99742.27
2019-03-06T14:49:07.240Z,99749.37
2019-03-06T14:51:37.091Z,99731.30
2019-03-06T14:54:07.881Z,99731.52
2019-03-06T14:56:37.738Z,99732.77
2019-03-06T14:59:07.430Z,99715.12
2019-03-06T15:01:37.082Z,99715.34
2019-03-06T15:04:06.821Z,99716.95
2019-03-06T15:06:36.698Z,99705.13
2019-03-06T15:09:10.823Z,99709.04
2019-03-06T15:11:40.702Z,99701.32
2019-03-06T15:14:10.404Z,99694.77
2019-03-06T15:16:40.123Z,99685.54
2019-03-06T15:19:09.773Z,99682.68
2019-03-06T15:21:39.650Z,99683.92
2019-03-06T15:24:09.297Z,99662.98
2019-03-06T15:26:39.067Z,99657.78
2019-03-06T15:29:08.742Z,99640.00
2019-03-06T15:31:38.442Z,99636.45
2019-03-06T15:34:08.103Z,99625.88
2019-03-06T15:36:40.985Z,99627.45
2019-03-06T15:39:30.598Z,99607.68
2019-03-06T15:42:02.303Z,99612.43
2019-03-06T15:44:32.026Z,99608.83
2019-03-06T15:47:01.699Z,99602.05
2019-03-06T15:49:31.355Z,99593.58
2019-03-06T15:52:00.979Z,99599.63
2019-03-06T15:54:30.619Z,99584.97
2019-03-06T15:57:00.250Z,99588.14
2019-03-06T15:59:29.967Z,99586.64
2019-03-06T16:01:59.585Z,99582.45
2019-03-06T16:04:29.273Z,99587.15
2019-03-06T16:06:58.983Z,99571.64
2019-03-06T16:09:28.800Z,99578.05
2019-03-06T16:11:58.512Z,99571.55
2019-03-06T16:14:28.330Z,99568.98
2019-03-06T16:16:58.134Z,99562.61
2019-03-06T16:19:36.819Z,99558.24
2019-03-06T16:22:06.626Z,99564.02
2019-03-06T16:24:37.656Z,99561.13
2019-03-06T16:27:07.483Z,99555.80
2019-03-06T16:29:47.429Z,99558.72
2019-03-06T16:32:18.190Z,99559.45
2019-03-06T16:34:48.123Z,99553.55
2019-03-06T16:37:17.841Z,99560.44
2019-03-06T16:39:47.540Z,99559.09
2019-03-06T16:42:17.228Z,99560.23
2019-03-06T16:44:46.900Z,99558.33
2019-03-06T16:47:16.532Z,99550.20
2019-03-06T16:49:46.235Z,99557.78
2019-03-06T16:52:15.875Z,99558.95
2019-03-06T16:54:45.512Z,99563.32
2019-03-06T16:57:15.284Z,99557.67
2019-03-06T16:59:44.990Z,99550.41
2019-03-06T17:02:14.912Z,99557.05
2019-03-06T17:04:44.678Z,99550.20
2019-03-06T17:07:14.463Z,99545.27
2019-03-06T17:09:44.283Z,99551.57
2019-03-06T17:12:16.476Z,99538.85
2019-03-06T17:14:47.760Z,99544.69
2019-03-06T17:17:20.255Z,99552.39
2019-03-06T17:19:49.904Z,99547.14
2019-03-06T17:22:19.558Z,99550.48
2019-03-06T17:24:49.219Z,99542.00
2019-03-06T17:27:18.919Z,99537.88
2019-03-06T17:29:48.781Z,99542.67
2019-03-06T17:32:18.407Z,99539.55
2019-03-06T17:34:48.128Z,99542.67
2019-03-06T17:37:17.880Z,99534.03
2019-03-06T17:39:47.599Z,99537.73
2019-03-06T17:42:17.809Z,99546.42
2019-03-06T17:44:47.460Z,99541.17
2019-03-06T17:47:17.097Z,99541.94
2019-03-06T17:49:46.755Z,99538.89
2019-03-06T17:52:16.397Z,99538.52
2019-03-06T17:54:46.304Z,99537.80
2019-03-06T17:57:15.943Z,99538.06
2019-03-06T17:59:45.560Z,99532.48
2019-03-06T18:02:15.353Z,99523.53
2019-03-06T18:04:45.009Z,99530.72
2019-03-06T18:07:14.755Z,99530.20
2019-03-06T18:09:44.651Z,99525.67
2019-03-06T18:12:16.083Z,99527.38
2019-03-06T18:14:50.819Z,99524.59
2019-03-06T18:17:20.528Z,99522.88
2019-03-06T18:19:50.316Z,99522.25
2019-03-06T18:22:20.872Z,99514.75
2019-03-06T18:24:50.924Z,99504.66
2019-03-06T18:27:26.402Z,99498.67
2019-03-06T18:29:52.031Z,99503.46
2019-03-06T18:32:23.598Z,99494.52
2019-03-06T18:34:53.076Z,99493.52
2019-03-06T18:37:22.958Z,99486.50
2019-03-06T18:39:52.675Z,99481.63
2019-03-06T18:42:22.315Z,99481.73
2019-03-06T18:44:51.942Z,99480.53
2019-03-06T18:47:21.601Z,99469.25
2019-03-06T18:49:51.217Z,99465.64
2019-03-06T18:52:20.863Z,99463.41
2019-03-06T18:54:50.488Z,99466.38
2019-03-06T18:57:20.205Z,99454.66
2019-03-06T18:59:49.833Z,99456.02
2019-03-06T19:02:19.514Z,99461.07
2019-03-06T19:04:49.204Z,99448.58
2019-03-06T19:07:18.847Z,99455.34
2019-03-06T19:09:48.475Z,99451.70
2019-03-06T19:12:18.129Z,99454.05
2019-03-06T19:14:47.758Z,99445.04
2019-03-06T19:17:17.495Z,99449.14
2019-03-06T19:19:47.413Z,99449.27
2019-03-06T19:22:17.067Z,99447.23
2019-03-06T19:24:46.788Z,99441.47
2019-03-06T19:27:16.421Z,99436.41
2019-03-06T19:29:46.219Z,99442.81
2019-03-06T19:32:15.923Z,99439.48
2019-03-06T19:34:45.806Z,99430.21
2019-03-06T19:37:15.513Z,99432.62
2019-03-06T19:39:45.177Z,99435.80
2019-03-06T19:42:14.800Z,99425.44
2019-03-06T19:44:45.453Z,99413.17
2019-03-06T19:47:15.142Z,99421.75
2019-03-06T19:49:44.786Z,99408.20
2019-03-06T19:52:14.428Z,99414.61
2019-03-06T19:54:44.071Z,99412.23
2019-03-06T19:57:13.769Z,99406.66
2019-03-06T19:59:43.486Z,99397.75
2019-03-06T20:02:13.178Z,99416.90
2019-03-06T20:04:42.831Z,99399.75
2019-03-06T20:07:12.473Z,99392.36
2019-03-06T20:09:42.136Z,99394.97
2019-03-06T20:12:11.764Z,99399.00
2019-03-06T20:14:41.436Z,99401.08
2019-03-06T20:17:11.268Z,99399.73
2019-03-06T20:19:41.485Z,99389.65
2019-03-06T20:22:11.266Z,99390.02
2019-03-06T20:24:41.335Z,99397.30
2019-03-06T20:27:11.333Z,99386.47
2019-03-06T20:29:41.584Z,99382.77
2019-03-06T20:32:11.641Z,99379.34
2019-03-06T20:34:41.284Z,99370.14
2019-03-06T20:37:10.924Z,99372.58
2019-03-06T20:39:40.660Z,99372.22
2019-03-06T20:42:10.294Z,99366.71
2019-03-06T20:44:39.936Z,99369.98
2019-03-06T20:47:09.852Z,99365.00
2019-03-06T20:49:39.496Z,99358.42
2019-03-06T20:52:09.139Z,99354.73
2019-03-06T20:54:40.797Z,99347.78
2019-03-06T20:57:10.093Z,99347.98
2019-03-06T20:59:42.561Z,99341.83
2019-03-06T21:02:12.009Z,99342.01
2019-03-06T21:04:41.734Z,99333.38
2019-03-06T21:07:11.450Z,99331.03
2019-03-06T21:09:41.129Z,99323.47
2019-03-06T21:12:10.879Z,99329.41
2019-03-06T21:14:41.881Z,99320.48
2019-03-06T21:17:11.860Z,99331.59
2019-03-06T21:19:43.108Z,99317.94
2019-03-06T21:22:12.908Z,99319.92
2019-03-06T21:24:42.546Z,99312.83
2019-03-06T21:27:12.169Z,99312.83
2019-03-06T21:29:42.382Z,99307.93
2019-03-06T21:32:12.115Z,99301.08
2019-03-06T21:34:41.772Z,99310.94
2019-03-06T21:37:11.908Z,99305.52
2019-03-06T21:39:41.623Z,99295.88
2019-03-06T21:42:11.292Z,99298.64
2019-03-06T21:44:40.912Z,99292.72
2019-03-06T21:47:10.548Z,99292.87
2019-03-06T21:49:41.038Z,99291.45
2019-03-06T21:52:10.676Z,99288.45
2019-03-06T21:54:40.306Z,99292.52
2019-03-06T21:57:09.941Z,99281.69
2019-03-06T21:59:39.563Z,99291.52
2019-03-06T22:02:09.579Z,99288.99
2019-03-06T22:04:41.075Z,99276.77
2019-03-06T22:07:10.713Z,99277.36
2019-03-06T22:09:40.338Z,99276.55
2019-03-06T22:12:11.035Z,99267.80
2019-03-06T22:14:40.658Z,99258.61
2019-03-06T22:17:10.321Z,99259.72
2019-03-06T22:19:40.024Z,99256.11
2019-03-06T22:22:09.677Z,99254.73
2019-03-06T22:24:39.302Z,99256.80
2019-03-06T22:27:08.930Z,99255.66
2019-03-06T22:29:38.550Z,99250.22
2019-03-06T22:32:08.704Z,99254.82
2019-03-06T22:34:38.618Z,99241.32
2019-03-06T22:37:08.253Z,99238.41
2019-03-06T22:39:37.878Z,99239.97
2019-03-06T22:42:07.656Z,99235.34
2019-03-06T22:44:37.285Z,99241.48
2019-03-06T22:47:07.103Z,99237.09
2019-03-06T22:49:36.752Z,99235.55
2019-03-06T22:52:06.400Z,99231.19
2019-03-06T22:54:36.101Z,99235.10
2019-03-06T22:57:05.789Z,99232.55
2019-03-06T22:59:35.400Z,99230.92
2019-03-06T23:02:05.110Z,99224.34
2019-03-06T23:04:34.775Z,99218.96
2019-03-06T23:07:04.425Z,99216.26
2019-03-06T23:09:34.061Z,99217.10
2019-03-06T23:12:03.705Z,99216.97
2019-03-06T23:14:35.357Z,99214.91
2019-03-06T23:17:05.070Z,99205.48
2019-03-06T23:19:34.715Z,99203.42
2019-03-06T23:22:04.414Z,99187.63
2019-03-06T23:24:34.131Z,99196.02
2019-03-06T23:27:04.007Z,99195.18
2019-03-06T23:29:33.652Z,99178.95
2019-03-06T23:32:03.287Z,99181.29
2019-03-06T23:34:32.930Z,99186.63
2019-03-06T23:37:02.639Z,99185.71
2019-03-06T23:39:32.314Z,99185.27
2019-03-06T23:42:02.140Z,99179.62
2019-03-06T23:44:31.778Z,99171.58
2019-03-06T23:47:01.486Z,99179.46
2019-03-06T23:49:31.125Z,99179.34
2019-03-06T23:52:00.755Z,99178.70
2019-03-06T23:54:30.664Z,99176.67
2019-03-06T23:57:00.496Z,99163.73
2019-03-06T23:59:30.124Z,99168.44
